Terminal Aerodrome Forecast
Issued by NWS

Home | Current Version | Previous Version | Text Only | Print | Product List | Glossary On
Versions: 1 2 3 4 5 6 7 8 9 10 11 12 13 14 15 16
000
FTUS46 KMTR 231727
TAFSNS
TAF
KSNS 231727Z 2318/2418 00000KT P6SM SKC
     FM232000 29014KT P6SM SKC
     FM240200 28010KT P6SM OVC010
     FM240900 29003KT 6SM BR OVC005
     FM241630 VRB03KT P6SM FEW012=

USA.gov is the U.S. government's official web portal to all federal, state and local government web resources and services.